sensor_id;sensor_type;location;lat;lon;timestamp;pressure;altitude;pressure_sealevel;temperature;humidity
6038;BME280;3047;42.600;23.470;2023-03-14T00:00:49;93225.13;;;4.78;61.84
6038;BME280;3047;42.600;23.470;2023-03-14T00:03:16;93238.38;;;4.95;61.80
6038;BME280;3047;42.600;23.470;2023-03-14T00:05:42;93231.69;;;4.96;63.98
6038;BME280;3047;42.600;23.470;2023-03-14T00:08:09;93226.78;;;4.79;64.53
6038;BME280;3047;42.600;23.470;2023-03-14T00:10:38;93222.69;;;4.54;64.74
6038;BME280;3047;42.600;23.470;2023-03-14T00:13:05;93191.13;;;4.27;66.43
6038;BME280;3047;42.600;23.470;2023-03-14T00:15:32;93183.56;;;4.43;65.03
6038;BME280;3047;42.600;23.470;2023-03-14T00:17:59;93173.50;;;4.53;65.20
6038;BME280;3047;42.600;23.470;2023-03-14T00:20:26;93183.47;;;4.65;65.17
6038;BME280;3047;42.600;23.470;2023-03-14T00:22:53;93170.13;;;4.66;63.45
6038;BME280;3047;42.600;23.470;2023-03-14T00:25:19;93150.16;;;4.57;62.43
6038;BME280;3047;42.600;23.470;2023-03-14T00:27:50;93182.50;;;4.92;61.95
6038;BME280;3047;42.600;23.470;2023-03-14T00:30:17;93155.00;;;4.84;60.73
6038;BME280;3047;42.600;23.470;2023-03-14T00:32:44;93165.91;;;4.74;61.85
6038;BME280;3047;42.600;23.470;2023-03-14T00:35:10;93162.69;;;4.51;61.73
6038;BME280;3047;42.600;23.470;2023-03-14T00:37:37;93126.97;;;4.26;61.69
6038;BME280;3047;42.600;23.470;2023-03-14T00:40:05;93143.56;;;4.37;61.73
6038;BME280;3047;42.600;23.470;2023-03-14T00:42:32;93141.88;;;4.44;62.14
6038;BME280;3047;42.600;23.470;2023-03-14T00:45:00;93141.06;;;4.42;63.91
6038;BME280;3047;42.600;23.470;2023-03-14T00:47:27;93139.44;;;4.32;62.67
6038;BME280;3047;42.600;23.470;2023-03-14T00:49:54;93130.28;;;4.23;64.44
6038;BME280;3047;42.600;23.470;2023-03-14T00:52:20;93154.41;;;4.39;64.17
6038;BME280;3047;42.600;23.470;2023-03-14T00:54:47;93157.78;;;4.28;64.69
6038;BME280;3047;42.600;23.470;2023-03-14T00:57:14;93159.47;;;4.26;66.27
6038;BME280;3047;42.600;23.470;2023-03-14T00:59:40;93147.81;;;4.17;66.36
6038;BME280;3047;42.600;23.470;2023-03-14T01:02:08;93152.81;;;4.17;66.56
6038;BME280;3047;42.600;23.470;2023-03-14T01:04:35;93134.50;;;4.07;66.74
6038;BME280;3047;42.600;23.470;2023-03-14T01:07:03;93125.38;;;3.92;67.05
6038;BME280;3047;42.600;23.470;2023-03-14T01:09:29;93158.66;;;4.19;67.29
6038;BME280;3047;42.600;23.470;2023-03-14T01:11:56;93151.13;;;4.22;66.67
6038;BME280;3047;42.600;23.470;2023-03-14T01:14:23;93149.50;;;4.09;67.69
6038;BME280;3047;42.600;23.470;2023-03-14T01:16:49;93137.91;;;3.89;68.95
6038;BME280;3047;42.600;23.470;2023-03-14T01:19:17;93130.47;;;3.56;70.18
6038;BME280;3047;42.600;23.470;2023-03-14T01:21:44;93135.47;;;3.57;70.53
6038;BME280;3047;42.600;23.470;2023-03-14T01:24:11;93105.50;;;3.57;70.47
6038;BME280;3047;42.600;23.470;2023-03-14T01:26:38;93125.47;;;3.65;71.13
6038;BME280;3047;42.600;23.470;2023-03-14T01:29:05;93123.78;;;3.71;71.07
6038;BME280;3047;42.600;23.470;2023-03-14T01:31:31;93127.09;;;3.72;71.51
6038;BME280;3047;42.600;23.470;2023-03-14T01:33:58;93126.31;;;3.55;70.25
6038;BME280;3047;42.600;23.470;2023-03-14T01:36:26;93111.34;;;3.50;70.86
6038;BME280;3047;42.600;23.470;2023-03-14T01:38:53;93115.53;;;3.27;72.89
6038;BME280;3047;42.600;23.470;2023-03-14T01:41:22;93094.69;;;3.35;72.86
6038;BME280;3047;42.600;23.470;2023-03-14T01:43:49;93092.22;;;3.31;72.73
6038;BME280;3047;42.600;23.470;2023-03-14T01:49:22;93112.19;;;3.38;73.15
6038;BME280;3047;42.600;23.470;2023-03-14T01:51:56;93098.91;;;3.01;74.57
6038;BME280;3047;42.600;23.470;2023-03-14T01:54:28;93104.72;;;3.17;74.19
6038;BME280;3047;42.600;23.470;2023-03-14T01:56:58;93073.94;;;2.87;73.13
6038;BME280;3047;42.600;23.470;2023-03-14T01:59:27;93108.03;;;3.14;74.63
6038;BME280;3047;42.600;23.470;2023-03-14T02:01:56;93103.88;;;3.16;74.24
6038;BME280;3047;42.600;23.470;2023-03-14T02:04:25;93068.13;;;2.84;75.44
6038;BME280;3047;42.600;23.470;2023-03-14T02:06:59;93108.84;;;3.12;74.50
6038;BME280;3047;42.600;23.470;2023-03-14T02:09:26;93085.59;;;3.05;74.36
6038;BME280;3047;42.600;23.470;2023-03-14T02:11:53;93083.91;;;2.93;74.52
6038;BME280;3047;42.600;23.470;2023-03-14T02:14:29;93113.88;;;2.92;76.15
6038;BME280;3047;42.600;23.470;2023-03-14T02:16:56;93116.34;;;2.95;74.94
6038;BME280;3047;42.600;23.470;2023-03-14T02:19:34;93092.22;;;2.91;75.21
6038;BME280;3047;42.600;23.470;2023-03-14T02:22:08;93101.38;;;3.07;75.34
6038;BME280;3047;42.600;23.470;2023-03-14T02:24:43;93108.03;;;3.17;73.70
6038;BME280;3047;42.600;23.470;2023-03-14T02:27:14;93099.72;;;3.15;73.17
6038;BME280;3047;42.600;23.470;2023-03-14T02:29:47;93055.66;;;2.78;73.11
6038;BME280;3047;42.600;23.470;2023-03-14T02:32:16;93039.84;;;2.69;72.46
6038;BME280;3047;42.600;23.470;2023-03-14T02:34:46;93096.38;;;3.18;72.29
6038;BME280;3047;42.600;23.470;2023-03-14T02:37:15;93054.00;;;2.84;75.44
6038;BME280;3047;42.600;23.470;2023-03-14T02:39:44;93086.41;;;2.95;78.00
6038;BME280;3047;42.600;23.470;2023-03-14T02:42:14;93086.44;;;2.92;75.54
6038;BME280;3047;42.600;23.470;2023-03-14T02:44:50;93092.22;;;3.15;75.08
6038;BME280;3047;42.600;23.470;2023-03-14T02:47:19;93091.41;;;2.95;76.55
6038;BME280;3047;42.600;23.470;2023-03-14T02:49:46;93097.22;;;2.94;76.32
6038;BME280;3047;42.600;23.470;2023-03-14T02:52:13;93094.72;;;2.69;78.33
6038;BME280;3047;42.600;23.470;2023-03-14T02:54:40;93095.53;;;2.65;78.27
6038;BME280;3047;42.600;23.470;2023-03-14T02:57:07;93078.84;;;2.38;79.11
6038;BME280;3047;42.600;23.470;2023-03-14T02:59:35;93078.03;;;2.42;79.19
6038;BME280;3047;42.600;23.470;2023-03-14T03:02:01;93040.59;;;2.13;78.99
6038;BME280;3047;42.600;23.470;2023-03-14T03:04:28;93093.81;;;2.28;80.49
6038;BME280;3047;42.600;23.470;2023-03-14T03:06:55;93098.75;;;2.20;81.13
6038;BME280;3047;42.600;23.470;2023-03-14T03:09:21;93097.13;;;2.34;79.57
6038;BME280;3047;42.600;23.470;2023-03-14T03:11:48;93080.53;;;2.33;79.92
6038;BME280;3047;42.600;23.470;2023-03-14T03:14:15;93103.00;;;2.58;80.99
6038;BME280;3047;42.600;23.470;2023-03-14T03:16:43;93108.81;;;2.58;79.52
6038;BME280;3047;42.600;23.470;2023-03-14T03:19:09;93112.97;;;2.52;79.69
6038;BME280;3047;42.600;23.470;2023-03-14T03:21:38;93087.16;;;2.25;80.80
6038;BME280;3047;42.600;23.470;2023-03-14T03:24:05;93067.19;;;2.13;80.90
6038;BME280;3047;42.600;23.470;2023-03-14T03:26:33;93090.47;;;2.30;80.13
6038;BME280;3047;42.600;23.470;2023-03-14T03:29:00;93038.03;;;1.83;81.27
6038;BME280;3047;42.600;23.470;2023-03-14T03:31:26;93095.44;;;2.22;80.22
6038;BME280;3047;42.600;23.470;2023-03-14T03:33:55;93086.34;;;2.32;79.39
6038;BME280;3047;42.600;23.470;2023-03-14T03:36:23;93098.78;;;2.38;80.13
6038;BME280;3047;42.600;23.470;2023-03-14T03:38:51;93103.81;;;2.51;79.76
6038;BME280;3047;42.600;23.470;2023-03-14T03:41:17;93096.28;;;2.31;79.73
6038;BME280;3047;42.600;23.470;2023-03-14T03:43:44;93072.19;;;2.25;79.52
6038;BME280;3047;42.600;23.470;2023-03-14T03:46:11;93082.97;;;2.19;80.97
6038;BME280;3047;42.600;23.470;2023-03-14T03:48:37;93099.63;;;2.31;80.99
6038;BME280;3047;42.600;23.470;2023-03-14T03:51:06;93087.16;;;2.34;78.76
6038;BME280;3047;42.600;23.470;2023-03-14T03:53:32;93074.69;;;2.28;79.11
6038;BME280;3047;42.600;23.470;2023-03-14T03:55:59;93080.53;;;2.36;78.06
6038;BME280;3047;42.600;23.470;2023-03-14T03:58:26;93103.00;;;2.48;79.38
6038;BME280;3047;42.600;23.470;2023-03-14T04:00:54;93048.91;;;2.18;77.08
6038;BME280;3047;42.600;23.470;2023-03-14T04:03:20;93102.13;;;2.37;78.24
6038;BME280;3047;42.600;23.470;2023-03-14T04:05:57;93099.63;;;2.31;79.02
6038;BME280;3047;42.600;23.470;2023-03-14T04:08:26;93110.38;;;2.21;80.35
6038;BME280;3047;42.600;23.470;2023-03-14T04:10:55;93100.34;;;2.01;80.25
6038;BME280;3047;42.600;23.470;2023-03-14T04:13:22;93111.22;;;2.26;79.71
6038;BME280;3047;42.600;23.470;2023-03-14T04:15:48;93102.94;;;2.32;80.09
6038;BME280;3047;42.600;23.470;2023-03-14T04:18:15;93064.63;;;1.87;80.90
6038;BME280;3047;42.600;23.470;2023-03-14T04:20:42;93092.03;;;1.91;81.83
6038;BME280;3047;42.600;23.470;2023-03-14T04:23:08;93064.50;;;1.70;81.98
6038;BME280;3047;42.600;23.470;2023-03-14T04:25:36;93099.50;;;1.93;81.31
6038;BME280;3047;42.600;23.470;2023-03-14T04:28:03;93043.69;;;1.48;82.57
6038;BME280;3047;42.600;23.470;2023-03-14T04:30:30;93092.84;;;1.98;81.34
6038;BME280;3047;42.600;23.470;2023-03-14T04:32:57;93078.78;;;2.09;80.38
6038;BME280;3047;42.600;23.470;2023-03-14T04:35:23;93080.47;;;2.21;79.23
6038;BME280;3047;42.600;23.470;2023-03-14T04:37:50;93076.38;;;2.28;78.71
6038;BME280;3047;42.600;23.470;2023-03-14T04:40:17;93076.31;;;2.18;79.79
6038;BME280;3047;42.600;23.470;2023-03-14T04:42:45;93082.13;;;2.13;80.18
6038;BME280;3047;42.600;23.470;2023-03-14T04:45:12;93066.34;;;2.09;78.68
6038;BME280;3047;42.600;23.470;2023-03-14T04:47:39;93065.53;;;2.15;79.75
6038;BME280;3047;42.600;23.470;2023-03-14T04:50:06;93019.81;;;1.96;79.33
6038;BME280;3047;42.600;23.470;2023-03-14T04:52:33;93069.72;;;2.37;79.63
6038;BME280;3047;42.600;23.470;2023-03-14T07:21:56;93009.38;;;8.13;64.00
6038;BME280;3047;42.600;23.470;2023-03-14T07:24:23;92997.31;;;8.29;63.39
6038;BME280;3047;42.600;23.470;2023-03-14T07:26:50;92997.63;;;8.54;62.08
6038;BME280;3047;42.600;23.470;2023-03-14T07:29:16;93005.69;;;8.70;62.05
6038;BME280;3047;42.600;23.470;2023-03-14T07:31:43;92979.66;;;8.69;61.86
6038;BME280;3047;42.600;23.470;2023-03-14T07:34:10;93001.84;;;8.90;61.55
6038;BME280;3047;42.600;23.470;2023-03-14T07:36:36;92993.97;;;9.04;60.98
6038;BME280;3047;42.600;23.470;2023-03-14T07:39:05;93006.28;;;9.15;60.57
6038;BME280;3047;42.600;23.470;2023-03-14T07:41:31;93001.41;;;9.09;61.36
6038;BME280;3047;42.600;23.470;2023-03-14T07:43:58;92961.91;;;8.75;62.36
6038;BME280;3047;42.600;23.470;2023-03-14T07:46:25;92949.84;;;8.88;61.80
6038;BME280;3047;42.600;23.470;2023-03-14T07:48:52;92991.66;;;9.29;60.36
6038;BME280;3047;42.600;23.470;2023-03-14T07:51:18;92986.88;;;9.53;60.03
6038;BME280;3047;42.600;23.470;2023-03-14T07:53:45;92989.91;;;9.64;58.95
6038;BME280;3047;42.600;23.470;2023-03-14T07:56:13;92992.28;;;9.70;59.71
6038;BME280;3047;42.600;23.470;2023-03-14T07:58:40;92980.75;;;9.93;58.26
6038;BME280;3047;42.600;23.470;2023-03-14T08:01:06;92974.41;;;10.09;56.37
6038;BME280;3047;42.600;23.470;2023-03-14T08:03:33;92981.31;;;10.32;55.69
6038;BME280;3047;42.600;23.470;2023-03-14T08:06:00;92942.28;;;10.14;57.45
6038;BME280;3047;42.600;23.470;2023-03-14T08:08:27;92979.41;;;10.10;56.63
6038;BME280;3047;42.600;23.470;2023-03-14T08:10:53;92978.13;;;10.27;57.82
6038;BME280;3047;42.600;23.470;2023-03-14T08:13:21;92975.03;;;10.15;57.63
6038;BME280;3047;42.600;23.470;2023-03-14T08:15:50;92978.03;;;9.99;58.42
6038;BME280;3047;42.600;23.470;2023-03-14T08:18:17;92984.50;;;10.09;57.11
6038;BME280;3047;42.600;23.470;2023-03-14T08:20:44;92985.41;;;10.06;57.64
6038;BME280;3047;42.600;23.470;2023-03-14T08:23:10;92980.16;;;10.12;56.03
6038;BME280;3047;42.600;23.470;2023-03-14T08:25:38;92963.13;;;9.91;56.17
6038;BME280;3047;42.600;23.470;2023-03-14T08:28:04;92945.81;;;9.79;56.48
6038;BME280;3047;42.600;23.470;2023-03-14T08:30:32;92982.41;;;9.94;56.66
6038;BME280;3047;42.600;23.470;2023-03-14T08:32:59;92954.91;;;9.53;56.91
6038;BME280;3047;42.600;23.470;2023-03-14T08:35:26;92975.53;;;9.35;57.88
6038;BME280;3047;42.600;23.470;2023-03-14T08:37:53;92979.06;;;9.29;57.12
6038;BME280;3047;42.600;23.470;2023-03-14T08:40:21;92980.25;;;9.16;59.09
6038;BME280;3047;42.600;23.470;2023-03-14T08:42:47;92957.06;;;9.02;57.70
6038;BME280;3047;42.600;23.470;2023-03-14T08:45:15;92973.72;;;9.07;59.73
6038;BME280;3047;42.600;23.470;2023-03-14T08:47:44;92930.59;;;8.85;58.08
6038;BME280;3047;42.600;23.470;2023-03-14T08:50:11;92951.91;;;9.06;59.66
6038;BME280;3047;42.600;23.470;2023-03-14T08:52:38;92953.84;;;8.97;59.96
6038;BME280;3047;42.600;23.470;2023-03-14T08:55:07;92929.25;;;8.71;61.07
6038;BME280;3047;42.600;23.470;2023-03-14T08:57:34;92949.97;;;8.83;60.69
6038;BME280;3047;42.600;23.470;2023-03-14T09:00:03;92926.31;;;8.55;61.02
6038;BME280;3047;42.600;23.470;2023-03-14T09:02:33;92935.28;;;8.65;60.81
6038;BME280;3047;42.600;23.470;2023-03-14T09:05:01;92906.31;;;8.49;62.71
6038;BME280;3047;42.600;23.470;2023-03-14T09:07:28;92929.06;;;8.80;62.42
6038;BME280;3047;42.600;23.470;2023-03-14T09:09:55;92933.47;;;8.72;63.23
6038;BME280;3047;42.600;23.470;2023-03-14T09:12:21;92928.44;;;8.72;63.41
6038;BME280;3047;42.600;23.470;2023-03-14T09:14:48;92930.78;;;8.78;63.67
6038;BME280;3047;42.600;23.470;2023-03-14T09:17:15;92921.53;;;8.78;64.04
6038;BME280;3047;42.600;23.470;2023-03-14T09:19:41;92914.03;;;8.77;63.39
6038;BME280;3047;42.600;23.470;2023-03-14T09:22:09;92887.00;;;8.83;64.61
6038;BME280;3047;42.600;23.470;2023-03-14T09:24:36;92873.53;;;8.84;65.79
6038;BME280;3047;42.600;23.470;2023-03-14T09:27:03;92888.41;;;8.94;62.79
6038;BME280;3047;42.600;23.470;2023-03-14T09:29:30;92896.09;;;9.22;64.40
6038;BME280;3047;42.600;23.470;2023-03-14T09:31:58;92892.25;;;9.08;65.39
6038;BME280;3047;42.600;23.470;2023-03-14T09:34:25;92889.84;;;9.04;64.63
6038;BME280;3047;42.600;23.470;2023-03-14T09:36:52;92875.34;;;9.12;62.48
6038;BME280;3047;42.600;23.470;2023-03-14T09:39:20;92870.84;;;9.54;62.36
6038;BME280;3047;42.600;23.470;2023-03-14T09:41:48;92875.13;;;9.51;62.70
6038;BME280;3047;42.600;23.470;2023-03-14T09:44:21;92861.63;;;9.53;62.12
6038;BME280;3047;42.600;23.470;2023-03-14T09:46:53;92868.03;;;9.63;61.46
6038;BME280;3047;42.600;23.470;2023-03-14T09:49:23;92851.66;;;9.78;60.01
6038;BME280;3047;42.600;23.470;2023-03-14T09:51:54;92846.38;;;9.86;61.86
6038;BME280;3047;42.600;23.470;2023-03-14T09:54:31;92848.84;;;9.87;60.65
6038;BME280;3047;42.600;23.470;2023-03-14T09:56:59;92848.47;;;10.00;58.65
6038;BME280;3047;42.600;23.470;2023-03-14T09:59:26;92836.59;;;10.03;58.14
6038;BME280;3047;42.600;23.470;2023-03-14T10:01:56;92817.88;;;10.10;57.41
6038;BME280;3047;42.600;23.470;2023-03-14T10:04:25;92810.72;;;10.25;57.42
6038;BME280;3047;42.600;23.470;2023-03-14T10:06:52;92773.34;;;10.09;57.97
6038;BME280;3047;42.600;23.470;2023-03-14T10:09:21;92819.38;;;10.44;56.40
6038;BME280;3047;42.600;23.470;2023-03-14T10:11:54;92771.34;;;10.19;56.21
6038;BME280;3047;42.600;23.470;2023-03-14T10:14:30;92803.16;;;10.51;55.01
6038;BME280;3047;42.600;23.470;2023-03-14T10:17:05;92762.50;;;10.34;55.63
6038;BME280;3047;42.600;23.470;2023-03-14T10:19:31;92804.94;;;10.74;55.45
6038;BME280;3047;42.600;23.470;2023-03-14T10:22:01;92807.44;;;10.99;55.13
6038;BME280;3047;42.600;23.470;2023-03-14T10:24:30;92785.44;;;11.01;54.41
6038;BME280;3047;42.600;23.470;2023-03-14T10:27:00;92779.31;;;11.08;54.10
6038;BME280;3047;42.600;23.470;2023-03-14T10:29:28;92771.94;;;11.26;54.66
6038;BME280;3047;42.600;23.470;2023-03-14T10:31:59;92756.09;;;11.44;54.23
6038;BME280;3047;42.600;23.470;2023-03-14T10:34:29;92764.59;;;11.65;54.35
6038;BME280;3047;42.600;23.470;2023-03-14T10:36:58;92701.53;;;11.38;54.21
6038;BME280;3047;42.600;23.470;2023-03-14T10:39:29;92755.81;;;11.97;53.66
6038;BME280;3047;42.600;23.470;2023-03-14T10:42:05;92723.47;;;11.82;52.62
6038;BME280;3047;42.600;23.470;2023-03-14T10:44:34;92717.53;;;12.05;50.14
6038;BME280;3047;42.600;23.470;2023-03-14T10:47:03;92686.25;;;12.06;50.50
6038;BME280;3047;42.600;23.470;2023-03-14T10:49:32;92709.34;;;12.41;49.66
6038;BME280;3047;42.600;23.470;2023-03-14T10:52:15;92721.59;;;12.70;48.49
6038;BME280;3047;42.600;23.470;2023-03-14T10:54:47;92708.72;;;12.75;47.91
6038;BME280;3047;42.600;23.470;2023-03-14T10:57:15;92703.56;;;12.97;52.50
6038;BME280;3047;42.600;23.470;2023-03-14T10:59:43;92677.94;;;13.22;50.36
6038;BME280;3047;42.600;23.470;2023-03-14T11:02:31;92697.72;;;13.34;46.33
6038;BME280;3047;42.600;23.470;2023-03-14T11:05:11;92668.63;;;13.41;49.97
6038;BME280;3047;42.600;23.470;2023-03-14T11:07:42;92634.22;;;13.35;49.95
6038;BME280;3047;42.600;23.470;2023-03-14T11:10:17;92661.06;;;13.76;48.52
6038;BME280;3047;42.600;23.470;2023-03-14T11:13:01;92655.19;;;13.93;48.68
6038;BME280;3047;42.600;23.470;2023-03-14T11:15:34;92651.69;;;13.95;46.34
6038;BME280;3047;42.600;23.470;2023-03-14T11:21:07;92559.94;;;13.85;45.38
6038;BME280;3047;42.600;23.470;2023-03-14T11:23:41;92617.59;;;14.34;47.71
6038;BME280;3047;42.600;23.470;2023-03-14T11:26:24;92580.47;;;14.31;48.88
6038;BME280;3047;42.600;23.470;2023-03-14T11:28:57;92615.44;;;14.77;46.61
6038;BME280;3047;42.600;23.470;2023-03-14T11:31:27;92553.09;;;14.70;44.63
6038;BME280;3047;42.600;23.470;2023-03-14T11:33:58;92604.75;;;15.19;45.17
6038;BME280;3047;42.600;23.470;2023-03-14T11:36:30;92598.97;;;15.31;43.77
6038;BME280;3047;42.600;23.470;2023-03-14T11:38:59;92590.91;;;15.39;46.48
6038;BME280;3047;42.600;23.470;2023-03-14T11:41:30;92585.53;;;15.59;42.19
6038;BME280;3047;42.600;23.470;2023-03-14T11:44:04;92542.00;;;15.34;41.00
6038;BME280;3047;42.600;23.470;2023-03-14T11:46:38;92519.50;;;15.26;41.65
6038;BME280;3047;42.600;23.470;2023-03-14T11:49:13;92575.13;;;15.64;42.17
6038;BME280;3047;42.600;23.470;2023-03-14T11:51:46;92533.09;;;15.57;44.41
6038;BME280;3047;42.600;23.470;2023-03-14T11:54:20;92562.81;;;15.87;43.64
6038;BME280;3047;42.600;23.470;2023-03-14T11:56:55;92546.19;;;15.95;42.84
6038;BME280;3047;42.600;23.470;2023-03-14T11:59:28;92542.94;;;16.07;44.93
6038;BME280;3047;42.600;23.470;2023-03-14T12:02:01;92545.97;;;16.14;40.10
6038;BME280;3047;42.600;23.470;2023-03-14T12:04:43;92480.31;;;15.75;40.47
6038;BME280;3047;42.600;23.470;2023-03-14T12:07:17;92533.78;;;16.34;42.57
6038;BME280;3047;42.600;23.470;2023-03-14T12:09:48;92531.97;;;16.50;41.88
6038;BME280;3047;42.600;23.470;2023-03-14T12:12:18;92515.38;;;16.43;41.13
6038;BME280;3047;42.600;23.470;2023-03-14T12:14:53;92499.44;;;16.39;39.84
6038;BME280;3047;42.600;23.470;2023-03-14T12:17:23;92512.56;;;16.62;40.82
6038;BME280;3047;42.600;23.470;2023-03-14T12:20:02;92487.91;;;16.34;39.06
6038;BME280;3047;42.600;23.470;2023-03-14T12:22:33;92499.91;;;16.46;40.84
6038;BME280;3047;42.600;23.470;2023-03-14T12:25:05;92490.81;;;16.42;41.51
6038;BME280;3047;42.600;23.470;2023-03-14T12:27:45;92473.72;;;16.29;39.99
6038;BME280;3047;42.600;23.470;2023-03-14T12:30:35;92492.91;;;16.49;38.68
6038;BME280;3047;42.600;23.470;2023-03-14T12:33:29;92493.63;;;16.51;39.98
6038;BME280;3047;42.600;23.470;2023-03-14T12:36:19;92459.41;;;16.41;39.11
6038;BME280;3047;42.600;23.470;2023-03-14T12:39:19;92467.41;;;16.35;35.58
6038;BME280;3047;42.600;23.470;2023-03-14T12:41:51;92480.72;;;16.26;38.09
6038;BME280;3047;42.600;23.470;2023-03-14T12:44:40;92475.91;;;16.21;39.72
6038;BME280;3047;42.600;23.470;2023-03-14T12:48:00;92455.50;;;16.21;40.18
6038;BME280;3047;42.600;23.470;2023-03-14T12:50:37;92477.88;;;16.30;38.49
6038;BME280;3047;42.600;23.470;2023-03-14T12:56:20;92466.88;;;16.30;35.46
6038;BME280;3047;42.600;23.470;2023-03-14T12:58:55;92461.69;;;16.31;38.76
6038;BME280;3047;42.600;23.470;2023-03-14T13:01:25;92391.75;;;15.94;39.27
6038;BME280;3047;42.600;23.470;2023-03-14T13:03:55;92439.50;;;16.34;37.73
6038;BME280;3047;42.600;23.470;2023-03-14T13:06:46;92459.78;;;16.35;34.81
6038;BME280;3047;42.600;23.470;2023-03-14T13:09:35;92434.22;;;16.08;36.19
6038;BME280;3047;42.600;23.470;2023-03-14T13:12:03;92318.00;;;15.36;36.83
6038;BME280;3047;42.600;23.470;2023-03-14T13:14:35;92413.38;;;15.87;33.11
6038;BME280;3047;42.600;23.470;2023-03-14T13:17:03;92441.84;;;15.79;33.22
6038;BME280;3047;42.600;23.470;2023-03-14T13:19:33;92422.34;;;15.50;33.28
6038;BME280;3047;42.600;23.470;2023-03-14T13:22:04;92422.88;;;15.41;34.13
6038;BME280;3047;42.600;23.470;2023-03-14T13:24:34;92426.94;;;15.29;33.42
6038;BME280;3047;42.600;23.470;2023-03-14T13:27:01;92427.53;;;15.18;34.09
6038;BME280;3047;42.600;23.470;2023-03-14T13:29:28;92400.28;;;14.90;33.46
6038;BME280;3047;42.600;23.470;2023-03-14T13:31:58;92431.25;;;15.13;33.96
6038;BME280;3047;42.600;23.470;2023-03-14T13:34:26;92409.34;;;15.10;33.94
6038;BME280;3047;42.600;23.470;2023-03-14T13:36:56;92406.63;;;15.13;34.30
6038;BME280;3047;42.600;23.470;2023-03-14T13:39:24;92381.34;;;14.96;33.71
6038;BME280;3047;42.600;23.470;2023-03-14T13:41:51;92388.44;;;15.05;33.30
6038;BME280;3047;42.600;23.470;2023-03-14T13:44:25;92386.25;;;14.99;33.27
6038;BME280;3047;42.600;23.470;2023-03-14T13:46:57;92375.91;;;14.72;33.44
6038;BME280;3047;42.600;23.470;2023-03-14T13:49:25;92378.72;;;14.67;34.05
6038;BME280;3047;42.600;23.470;2023-03-14T13:51:56;92383.59;;;14.70;34.05
6038;BME280;3047;42.600;23.470;2023-03-14T13:54:22;92375.09;;;14.71;34.32
6038;BME280;3047;42.600;23.470;2023-03-14T13:56:59;92331.09;;;14.39;33.60
6038;BME280;3047;42.600;23.470;2023-03-14T13:59:28;92366.69;;;14.55;34.71
6038;BME280;3047;42.600;23.470;2023-03-14T14:01:55;92350.84;;;14.50;34.68
6038;BME280;3047;42.600;23.470;2023-03-14T14:04:24;92371.75;;;14.71;33.93
6038;BME280;3047;42.600;23.470;2023-03-14T14:06:56;92364.31;;;14.82;34.71
6038;BME280;3047;42.600;23.470;2023-03-14T14:09:26;92355.88;;;14.81;34.22
6038;BME280;3047;42.600;23.470;2023-03-14T14:11:55;92362.47;;;14.70;34.28
6038;BME280;3047;42.600;23.470;2023-03-14T14:14:26;92302.00;;;14.45;34.15
6038;BME280;3047;42.600;23.470;2023-03-14T14:16:54;92350.38;;;14.59;33.49
6038;BME280;3047;42.600;23.470;2023-03-14T14:19:26;92328.91;;;14.49;34.68
6038;BME280;3047;42.600;23.470;2023-03-14T14:21:55;92344.53;;;14.57;34.41
6038;BME280;3047;42.600;23.470;2023-03-14T14:24:24;92339.06;;;14.49;33.76
6038;BME280;3047;42.600;23.470;2023-03-14T14:26:54;92328.31;;;14.44;35.20
6038;BME280;3047;42.600;23.470;2023-03-14T14:29:26;92329.28;;;14.41;34.70
6038;BME280;3047;42.600;23.470;2023-03-14T14:32:01;92318.66;;;14.34;35.11
6038;BME280;3047;42.600;23.470;2023-03-14T14:34:28;92318.25;;;14.26;35.23
6038;BME280;3047;42.600;23.470;2023-03-14T14:36:56;92318.69;;;14.19;34.84
6038;BME280;3047;42.600;23.470;2023-03-14T14:39:25;92318.53;;;14.06;34.47
6038;BME280;3047;42.600;23.470;2023-03-14T14:41:54;92303.88;;;13.95;34.94
6038;BME280;3047;42.600;23.470;2023-03-14T14:44:28;92299.34;;;13.84;34.84
6038;BME280;3047;42.600;23.470;2023-03-14T14:46:57;92298.47;;;13.70;34.11
6038;BME280;3047;42.600;23.470;2023-03-14T14:49:28;92299.44;;;13.67;34.93
6038;BME280;3047;42.600;23.470;2023-03-14T14:52:03;92227.03;;;13.13;34.73
6038;BME280;3047;42.600;23.470;2023-03-14T14:54:37;92300.19;;;13.53;34.49
6038;BME280;3047;42.600;23.470;2023-03-14T14:57:06;92310.97;;;13.41;33.80
6038;BME280;3047;42.600;23.470;2023-03-14T14:59:43;92231.09;;;12.99;34.15
6038;BME280;3047;42.600;23.470;2023-03-14T15:02:28;92288.91;;;13.26;34.65
6038;BME280;3047;42.600;23.470;2023-03-14T15:04:55;92294.06;;;13.24;34.10
6038;BME280;3047;42.600;23.470;2023-03-14T15:07:23;92293.44;;;13.19;34.55
6038;BME280;3047;42.600;23.470;2023-03-14T15:09:50;92271.59;;;13.01;35.71
6038;BME280;3047;42.600;23.470;2023-03-14T15:12:17;92267.38;;;13.00;35.24
6038;BME280;3047;42.600;23.470;2023-03-14T15:14:45;92276.66;;;13.01;36.00
6038;BME280;3047;42.600;23.470;2023-03-14T15:17:11;92266.38;;;12.86;37.15
6038;BME280;3047;42.600;23.470;2023-03-14T15:19:38;92268.53;;;12.94;36.23
6038;BME280;3047;42.600;23.470;2023-03-14T15:22:11;92286.34;;;12.75;36.35
6038;BME280;3047;42.600;23.470;2023-03-14T15:24:40;92268.41;;;12.62;36.91
6038;BME280;3047;42.600;23.470;2023-03-14T15:27:12;92262.75;;;12.57;37.25
6038;BME280;3047;42.600;23.470;2023-03-14T15:29:40;92262.41;;;12.48;38.08
6038;BME280;3047;42.600;23.470;2023-03-14T15:32:11;92254.13;;;12.44;38.19
6038;BME280;3047;42.600;23.470;2023-03-14T15:34:38;92253.06;;;12.31;38.51
6038;BME280;3047;42.600;23.470;2023-03-14T15:37:05;92249.41;;;12.19;38.68
6038;BME280;3047;42.600;23.470;2023-03-14T15:39:33;92241.66;;;12.05;39.08
6038;BME280;3047;42.600;23.470;2023-03-14T15:42:01;92252.34;;;12.11;39.23
6038;BME280;3047;42.600;23.470;2023-03-14T15:44:28;92243.97;;;12.09;39.25
6038;BME280;3047;42.600;23.470;2023-03-14T15:46:55;92257.81;;;12.02;39.54
6038;BME280;3047;42.600;23.470;2023-03-14T15:49:21;92255.44;;;11.99;39.26
6038;BME280;3047;42.600;23.470;2023-03-14T15:51:48;92255.53;;;11.79;40.58
6038;BME280;3047;42.600;23.470;2023-03-14T15:54:15;92241.09;;;11.62;40.89
6038;BME280;3047;42.600;23.470;2023-03-14T15:56:41;92220.50;;;11.52;40.38
6038;BME280;3047;42.600;23.470;2023-03-14T15:59:09;92254.88;;;11.56;40.23
6038;BME280;3047;42.600;23.470;2023-03-14T16:01:36;92253.91;;;11.40;40.69
6038;BME280;3047;42.600;23.470;2023-03-14T16:04:03;92175.63;;;11.01;40.71
6038;BME280;3047;42.600;23.470;2023-03-14T16:06:30;92238.97;;;11.35;40.45